Airfield :
LOGIN :

Register | Disclaimer

   EN    FR    IT 

 










Legend :    VFR   Marginal VFR   IFR   Intensive IFR   Very Intensive IFR
Visi :
Ceiling :
>= 8 km
>= 3000ft
5 to 8 km
1000 to 3000 ft
1500m to 5 km
500 to 1000 ft
800 to 1500m
200 to 500 ft
< 800m
< 200 ft
Symbols :   Thunderstorms  Fog  Heavy snow  Heavy precipitations  Wind > 20 kt
SIGMETs :     Misc.  Thunderstorms  Icing  Turbulence  Mountain Waves  Volcanic Ashes






- Airport Elevation : 220 ft
- IATA code : CWL


EGFF - Cardiff Rhoose

CURRENT METAR :
  • 201850Z AUTO 10016G27KT 9999 BKN032 06/02 Q1005

EXPIRED METARs :
  • 201820Z AUTO 10015KT 9999 OVC032 07/02 Q1005
  • 201750Z AUTO 10015KT 9999 OVC031 07/02 Q1005
  • 201720Z AUTO 10014KT 9999 OVC029 07/03 Q1005
  • 201650Z AUTO 12017KT 9999 OVC024 07/03 Q1005
  • 201620Z AUTO 12020KT 9999 OVC025 07/02 Q1005

TAF TAF EGFF
Valid from the 20 at 18:00 until the 21 at 18:00 UTC


201708Z 2018/2118 11015KT 9999 SCT023
TEMPO 2018/2022 12020G30KT
TEMPO 2022/2103 9000 BKN013
BECMG 2103/2106 7000 BKN010
TEMPO 2106/2114 9999 SCT012 BKN020
TEMPO 2114/2118 4000 RADZ BKN005
ATIS : +44 1446 729 319



MET'MAP, your aeronautical weather chart ! - Copyright ORBIFLY December 2007 - Disclaimer

ORBIFLY MET'MAP TEAM :

Programming & Development : Alexandra Zaïnal
Concept & Development : Baudouin d'Aumeries
Co-Development & Prog : Marc-Olivier Méhu
Technical & hardware support : Manuel Goepfert

Contact : metmap@orbifly.com




SOURCES & CREDITS :

   NOAA